sensor_id;sensor_type;location;lat;lon;timestamp;pressure;altitude;pressure_sealevel;temperature;humidity
57568;BME280;43403;51.948;5.922;2023-05-25T00:00:08;102539.44;;;11.81;100.00
57568;BME280;43403;51.948;5.922;2023-05-25T00:02:36;102536.19;;;11.77;100.00
57568;BME280;43403;51.948;5.922;2023-05-25T00:05:04;102534.53;;;11.76;100.00
57568;BME280;43403;51.948;5.922;2023-05-25T00:07:31;102528.53;;;11.74;100.00
57568;BME280;43403;51.948;5.922;2023-05-25T00:09:57;102536.75;;;11.70;100.00
57568;BME280;43403;51.948;5.922;2023-05-25T00:12:24;102532.22;;;11.72;100.00
57568;BME280;43403;51.948;5.922;2023-05-25T00:14:50;102540.09;;;11.72;100.00
57568;BME280;43403;51.948;5.922;2023-05-25T00:17:17;102539.47;;;11.68;100.00
57568;BME280;43403;51.948;5.922;2023-05-25T00:19:44;102541.38;;;11.66;100.00
57568;BME280;43403;51.948;5.922;2023-05-25T00:22:11;102541.63;;;11.63;100.00
57568;BME280;43403;51.948;5.922;2023-05-25T00:24:38;102542.44;;;11.63;100.00
57568;BME280;43403;51.948;5.922;2023-05-25T00:27:05;102536.06;;;11.55;100.00
57568;BME280;43403;51.948;5.922;2023-05-25T00:29:34;102548.59;;;11.51;100.00
57568;BME280;43403;51.948;5.922;2023-05-25T00:32:01;102550.50;;;11.49;100.00
57568;BME280;43403;51.948;5.922;2023-05-25T00:34:28;102555.75;;;11.49;100.00
57568;BME280;43403;51.948;5.922;2023-05-25T00:36:54;102553.31;;;11.46;100.00
57568;BME280;43403;51.948;5.922;2023-05-25T00:39:21;102551.31;;;11.50;100.00
57568;BME280;43403;51.948;5.922;2023-05-25T00:41:48;102546.63;;;11.42;100.00
57568;BME280;43403;51.948;5.922;2023-05-25T00:44:15;102550.31;;;11.39;100.00
57568;BME280;43403;51.948;5.922;2023-05-25T00:46:47;102556.41;;;11.40;100.00
57568;BME280;43403;51.948;5.922;2023-05-25T00:49:17;102550.41;;;11.38;100.00
57568;BME280;43403;51.948;5.922;2023-05-25T00:51:44;102559.47;;;11.34;100.00
57568;BME280;43403;51.948;5.922;2023-05-25T00:54:17;102559.91;;;11.27;100.00
57568;BME280;43403;51.948;5.922;2023-05-25T00:56:55;102551.59;;;11.21;100.00
57568;BME280;43403;51.948;5.922;2023-05-25T00:59:32;102550.88;;;11.19;100.00
57568;BME280;43403;51.948;5.922;2023-05-25T01:02:26;102551.31;;;11.13;100.00
57568;BME280;43403;51.948;5.922;2023-05-25T01:04:55;102554.25;;;11.08;100.00
57568;BME280;43403;51.948;5.922;2023-05-25T01:07:26;102546.69;;;11.03;100.00
57568;BME280;43403;51.948;5.922;2023-05-25T01:09:57;102551.94;;;11.03;100.00
57568;BME280;43403;51.948;5.922;2023-05-25T01:12:27;102558.25;;;11.01;100.00
57568;BME280;43403;51.948;5.922;2023-05-25T01:14:55;102559.22;;;11.00;100.00
57568;BME280;43403;51.948;5.922;2023-05-25T01:17:22;102561.41;;;10.93;100.00
57568;BME280;43403;51.948;5.922;2023-05-25T01:19:48;102570.88;;;10.83;100.00
57568;BME280;43403;51.948;5.922;2023-05-25T01:25:12;102568.66;;;10.77;100.00
57568;BME280;43403;51.948;5.922;2023-05-25T01:27:47;102572.56;;;10.71;100.00
57568;BME280;43403;51.948;5.922;2023-05-25T01:30:18;102575.19;;;10.71;100.00
57568;BME280;43403;51.948;5.922;2023-05-25T01:32:45;102573.72;;;10.67;100.00
57568;BME280;43403;51.948;5.922;2023-05-25T01:35:12;102584.31;;;10.65;100.00
57568;BME280;43403;51.948;5.922;2023-05-25T01:37:46;102580.84;;;10.65;100.00
57568;BME280;43403;51.948;5.922;2023-05-25T01:40:13;102575.28;;;10.57;100.00
57568;BME280;43403;51.948;5.922;2023-05-25T01:42:40;102578.31;;;10.51;100.00
57568;BME280;43403;51.948;5.922;2023-05-25T01:45:08;102585.22;;;10.52;100.00
57568;BME280;43403;51.948;5.922;2023-05-25T01:50:21;102587.84;;;10.52;100.00
57568;BME280;43403;51.948;5.922;2023-05-25T01:53:08;102583.25;;;10.55;100.00
57568;BME280;43403;51.948;5.922;2023-05-25T01:55:49;102586.81;;;10.54;100.00
57568;BME280;43403;51.948;5.922;2023-05-25T01:58:19;102582.59;;;10.52;100.00
57568;BME280;43403;51.948;5.922;2023-05-25T02:00:48;102574.75;;;10.52;100.00
57568;BME280;43403;51.948;5.922;2023-05-25T02:03:16;102580.09;;;10.50;100.00
57568;BME280;43403;51.948;5.922;2023-05-25T02:05:44;102579.34;;;10.48;100.00
57568;BME280;43403;51.948;5.922;2023-05-25T02:08:11;102578.69;;;10.44;100.00
57568;BME280;43403;51.948;5.922;2023-05-25T02:10:38;102579.94;;;10.39;100.00
57568;BME280;43403;51.948;5.922;2023-05-25T02:13:04;102576.50;;;10.38;100.00
57568;BME280;43403;51.948;5.922;2023-05-25T02:15:32;102572.22;;;10.37;100.00
57568;BME280;43403;51.948;5.922;2023-05-25T02:17:59;102578.19;;;10.39;100.00
57568;BME280;43403;51.948;5.922;2023-05-25T02:20:26;102584.47;;;10.37;100.00
57568;BME280;43403;51.948;5.922;2023-05-25T02:22:53;102588.13;;;10.34;100.00
57568;BME280;43403;51.948;5.922;2023-05-25T02:25:20;102588.41;;;10.29;100.00
57568;BME280;43403;51.948;5.922;2023-05-25T02:27:46;102587.69;;;10.27;100.00
57568;BME280;43403;51.948;5.922;2023-05-25T02:30:13;102589.34;;;10.28;100.00
57568;BME280;43403;51.948;5.922;2023-05-25T02:32:39;102585.25;;;10.24;100.00
57568;BME280;43403;51.948;5.922;2023-05-25T02:35:06;102578.63;;;10.19;100.00
57568;BME280;43403;51.948;5.922;2023-05-25T02:37:33;102582.09;;;10.19;100.00
57568;BME280;43403;51.948;5.922;2023-05-25T02:39:59;102580.22;;;10.21;100.00
57568;BME280;43403;51.948;5.922;2023-05-25T02:42:26;102579.47;;;10.19;100.00
57568;BME280;43403;51.948;5.922;2023-05-25T02:44:52;102573.69;;;10.14;100.00
57568;BME280;43403;51.948;5.922;2023-05-25T02:47:19;102582.38;;;10.15;100.00
57568;BME280;43403;51.948;5.922;2023-05-25T02:49:47;102584.50;;;10.09;100.00
57568;BME280;43403;51.948;5.922;2023-05-25T02:52:13;102582.38;;;10.02;100.00
57568;BME280;43403;51.948;5.922;2023-05-25T02:54:40;102587.78;;;9.99;100.00
57568;BME280;43403;51.948;5.922;2023-05-25T02:57:07;102591.47;;;9.96;100.00
57568;BME280;43403;51.948;5.922;2023-05-25T02:59:33;102599.81;;;9.88;100.00
57568;BME280;43403;51.948;5.922;2023-05-25T03:02:00;102597.69;;;9.81;100.00
57568;BME280;43403;51.948;5.922;2023-05-25T03:04:27;102595.16;;;9.79;100.00
57568;BME280;43403;51.948;5.922;2023-05-25T03:06:53;102598.97;;;9.88;100.00
57568;BME280;43403;51.948;5.922;2023-05-25T03:09:20;102596.06;;;9.93;100.00
57568;BME280;43403;51.948;5.922;2023-05-25T03:11:46;102598.47;;;9.96;100.00
57568;BME280;43403;51.948;5.922;2023-05-25T03:14:13;102605.09;;;10.01;100.00
57568;BME280;43403;51.948;5.922;2023-05-25T03:16:39;102607.63;;;10.03;100.00
57568;BME280;43403;51.948;5.922;2023-05-25T03:19:06;102613.50;;;10.06;100.00
57568;BME280;43403;51.948;5.922;2023-05-25T03:21:33;102607.22;;;10.09;100.00
57568;BME280;43403;51.948;5.922;2023-05-25T03:24:00;102608.38;;;10.05;100.00
57568;BME280;43403;51.948;5.922;2023-05-25T03:26:26;102614.44;;;10.05;100.00
57568;BME280;43403;51.948;5.922;2023-05-25T03:28:54;102611.28;;;10.00;100.00
57568;BME280;43403;51.948;5.922;2023-05-25T03:31:21;102617.06;;;10.05;100.00
57568;BME280;43403;51.948;5.922;2023-05-25T03:33:48;102620.72;;;10.03;100.00
57568;BME280;43403;51.948;5.922;2023-05-25T03:36:14;102622.81;;;9.98;100.00
57568;BME280;43403;51.948;5.922;2023-05-25T03:38:43;102620.38;;;9.95;100.00
57568;BME280;43403;51.948;5.922;2023-05-25T03:41:10;102613.91;;;10.00;100.00
57568;BME280;43403;51.948;5.922;2023-05-25T03:43:36;102610.34;;;10.01;100.00
57568;BME280;43403;51.948;5.922;2023-05-25T03:46:02;102619.81;;;10.04;100.00
57568;BME280;43403;51.948;5.922;2023-05-25T03:48:29;102610.34;;;10.01;100.00
57568;BME280;43403;51.948;5.922;2023-05-25T03:50:55;102610.56;;;9.98;100.00
57568;BME280;43403;51.948;5.922;2023-05-25T03:53:22;102608.03;;;9.97;100.00
57568;BME280;43403;51.948;5.922;2023-05-25T03:55:48;102612.44;;;9.96;100.00
57568;BME280;43403;51.948;5.922;2023-05-25T03:58:17;102625.63;;;9.95;100.00
57568;BME280;43403;51.948;5.922;2023-05-25T04:00:43;102624.06;;;9.92;100.00
57568;BME280;43403;51.948;5.922;2023-05-25T04:03:10;102623.66;;;9.98;100.00
57568;BME280;43403;51.948;5.922;2023-05-25T04:05:37;102628.06;;;9.98;100.00
57568;BME280;43403;51.948;5.922;2023-05-25T04:08:03;102632.66;;;9.94;100.00
57568;BME280;43403;51.948;5.922;2023-05-25T04:10:30;102629.09;;;9.95;100.00
57568;BME280;43403;51.948;5.922;2023-05-25T04:12:56;102633.31;;;9.98;100.00
57568;BME280;43403;51.948;5.922;2023-05-25T04:15:23;102629.84;;;9.97;100.00
57568;BME280;43403;51.948;5.922;2023-05-25T04:17:50;102633.84;;;10.03;100.00
57568;BME280;43403;51.948;5.922;2023-05-25T04:20:16;102640.03;;;10.02;100.00
57568;BME280;43403;51.948;5.922;2023-05-25T04:22:43;102646.22;;;10.01;100.00
57568;BME280;43403;51.948;5.922;2023-05-25T04:25:10;102640.88;;;10.02;100.00
57568;BME280;43403;51.948;5.922;2023-05-25T04:27:36;102643.81;;;9.98;100.00
57568;BME280;43403;51.948;5.922;2023-05-25T04:30:03;102644.41;;;10.01;100.00
57568;BME280;43403;51.948;5.922;2023-05-25T04:32:30;102638.03;;;10.05;100.00
57568;BME280;43403;51.948;5.922;2023-05-25T04:34:57;102641.97;;;10.13;100.00
57568;BME280;43403;51.948;5.922;2023-05-25T04:37:24;102633.91;;;10.16;100.00
57568;BME280;43403;51.948;5.922;2023-05-25T04:39:54;102636.53;;;10.16;100.00
57568;BME280;43403;51.948;5.922;2023-05-25T04:42:22;102642.44;;;10.19;100.00
57568;BME280;43403;51.948;5.922;2023-05-25T04:44:50;102633.50;;;10.22;100.00
57568;BME280;43403;51.948;5.922;2023-05-25T04:47:18;102642.66;;;10.29;100.00
57568;BME280;43403;51.948;5.922;2023-05-25T04:49:45;102640.88;;;10.29;100.00
57568;BME280;43403;51.948;5.922;2023-05-25T04:52:11;102651.84;;;10.36;100.00
57568;BME280;43403;51.948;5.922;2023-05-25T04:54:38;102651.84;;;10.36;100.00
57568;BME280;43403;51.948;5.922;2023-05-25T04:57:04;102659.41;;;10.41;100.00
57568;BME280;43403;51.948;5.922;2023-05-25T04:59:31;102656.66;;;10.42;100.00
57568;BME280;43403;51.948;5.922;2023-05-25T05:01:58;102661.00;;;10.43;100.00
57568;BME280;43403;51.948;5.922;2023-05-25T05:04:24;102665.94;;;10.48;100.00
57568;BME280;43403;51.948;5.922;2023-05-25T05:06:51;102662.16;;;10.52;100.00
57568;BME280;43403;51.948;5.922;2023-05-25T05:09:17;102664.28;;;10.60;100.00
57568;BME280;43403;51.948;5.922;2023-05-25T05:11:44;102670.25;;;10.62;100.00
57568;BME280;43403;51.948;5.922;2023-05-25T05:14:11;102677.72;;;10.68;100.00
57568;BME280;43403;51.948;5.922;2023-05-25T05:16:37;102676.47;;;10.74;100.00
57568;BME280;43403;51.948;5.922;2023-05-25T05:19:04;102679.75;;;10.77;100.00
57568;BME280;43403;51.948;5.922;2023-05-25T05:21:31;102684.81;;;10.80;100.00
57568;BME280;43403;51.948;5.922;2023-05-25T05:23:57;102686.81;;;10.89;100.00
57568;BME280;43403;51.948;5.922;2023-05-25T05:26:24;102685.78;;;10.92;100.00
57568;BME280;43403;51.948;5.922;2023-05-25T05:28:50;102679.47;;;10.95;100.00
57568;BME280;43403;51.948;5.922;2023-05-25T05:31:17;102680.84;;;11.00;100.00
57568;BME280;43403;51.948;5.922;2023-05-25T05:33:45;102679.03;;;11.01;100.00
57568;BME280;43403;51.948;5.922;2023-05-25T05:36:11;102691.88;;;11.05;100.00
57568;BME280;43403;51.948;5.922;2023-05-25T05:38:38;102692.50;;;11.09;100.00
57568;BME280;43403;51.948;5.922;2023-05-25T05:41:06;102700.91;;;11.14;100.00
57568;BME280;43403;51.948;5.922;2023-05-25T05:43:40;102701.44;;;11.19;100.00
57568;BME280;43403;51.948;5.922;2023-05-25T05:46:08;102700.81;;;11.28;100.00
57568;BME280;43403;51.948;5.922;2023-05-25T05:48:36;102698.72;;;11.34;100.00
57568;BME280;43403;51.948;5.922;2023-05-25T05:51:05;102711.31;;;11.41;100.00
57568;BME280;43403;51.948;5.922;2023-05-25T05:53:32;102714.59;;;11.45;100.00
57568;BME280;43403;51.948;5.922;2023-05-25T05:56:01;102707.09;;;11.52;100.00
57568;BME280;43403;51.948;5.922;2023-05-25T05:58:28;102706.91;;;11.55;100.00
57568;BME280;43403;51.948;5.922;2023-05-25T06:00:55;102706.56;;;11.59;100.00
57568;BME280;43403;51.948;5.922;2023-05-25T06:03:22;102714.75;;;11.67;100.00
57568;BME280;43403;51.948;5.922;2023-05-25T06:05:49;102710.25;;;11.70;100.00
57568;BME280;43403;51.948;5.922;2023-05-25T06:08:16;102711.59;;;11.75;100.00
57568;BME280;43403;51.948;5.922;2023-05-25T06:10:42;102711.41;;;11.78;100.00
57568;BME280;43403;51.948;5.922;2023-05-25T06:13:09;102718.84;;;11.84;100.00
57568;BME280;43403;51.948;5.922;2023-05-25T06:15:35;102713.19;;;11.91;100.00
57568;BME280;43403;51.948;5.922;2023-05-25T06:18:02;102716.19;;;11.97;100.00
57568;BME280;43403;51.948;5.922;2023-05-25T06:20:29;102725.56;;;12.01;100.00
57568;BME280;43403;51.948;5.922;2023-05-25T06:22:55;102731.44;;;12.05;100.00
57568;BME280;43403;51.948;5.922;2023-05-25T06:25:22;102732.69;;;12.12;100.00
57568;BME280;43403;51.948;5.922;2023-05-25T06:27:49;102733.53;;;12.13;100.00
57568;BME280;43403;51.948;5.922;2023-05-25T06:30:15;102734.16;;;12.16;100.00
57568;BME280;43403;51.948;5.922;2023-05-25T06:32:42;102740.16;;;12.18;100.00
57568;BME280;43403;51.948;5.922;2023-05-25T06:35:09;102735.41;;;12.23;100.00
57568;BME280;43403;51.948;5.922;2023-05-25T06:37:38;102737.59;;;12.30;100.00
57568;BME280;43403;51.948;5.922;2023-05-25T06:40:05;102737.13;;;12.36;100.00
57568;BME280;43403;51.948;5.922;2023-05-25T06:42:35;102742.19;;;12.39;100.00
57568;BME280;43403;51.948;5.922;2023-05-25T06:45:03;102751.53;;;12.43;100.00
57568;BME280;43403;51.948;5.922;2023-05-25T06:47:30;102751.00;;;12.51;100.00
57568;BME280;43403;51.948;5.922;2023-05-25T06:49:57;102740.84;;;12.57;100.00
57568;BME280;43403;51.948;5.922;2023-05-25T06:52:23;102755.09;;;12.66;100.00
57568;BME280;43403;51.948;5.922;2023-05-25T06:54:50;102746.16;;;12.69;100.00
57568;BME280;43403;51.948;5.922;2023-05-25T06:57:16;102754.59;;;12.85;100.00
57568;BME280;43403;51.948;5.922;2023-05-25T06:59:43;102750.22;;;12.97;100.00
57568;BME280;43403;51.948;5.922;2023-05-25T07:02:09;102750.34;;;13.06;100.00
57568;BME280;43403;51.948;5.922;2023-05-25T07:04:36;102749.09;;;13.23;100.00
57568;BME280;43403;51.948;5.922;2023-05-25T07:07:03;102756.69;;;13.39;100.00
57568;BME280;43403;51.948;5.922;2023-05-25T07:09:29;102748.81;;;13.51;100.00
57568;BME280;43403;51.948;5.922;2023-05-25T07:11:56;102744.22;;;13.64;100.00
57568;BME280;43403;51.948;5.922;2023-05-25T07:14:22;102750.13;;;13.79;100.00
57568;BME280;43403;51.948;5.922;2023-05-25T07:16:49;102750.47;;;13.97;100.00
57568;BME280;43403;51.948;5.922;2023-05-25T07:19:16;102755.47;;;14.11;100.00
57568;BME280;43403;51.948;5.922;2023-05-25T07:21:42;102754.50;;;14.23;100.00
57568;BME280;43403;51.948;5.922;2023-05-25T07:24:09;102745.47;;;14.37;100.00
57568;BME280;43403;51.948;5.922;2023-05-25T07:26:36;102758.78;;;14.47;100.00
57568;BME280;43403;51.948;5.922;2023-05-25T07:29:02;102759.22;;;14.52;100.00
57568;BME280;43403;51.948;5.922;2023-05-25T07:31:28;102763.06;;;14.59;100.00
57568;BME280;43403;51.948;5.922;2023-05-25T07:33:55;102762.22;;;14.70;100.00
57568;BME280;43403;51.948;5.922;2023-05-25T07:36:21;102770.94;;;14.82;100.00
57568;BME280;43403;51.948;5.922;2023-05-25T07:38:50;102765.72;;;14.92;100.00
57568;BME280;43403;51.948;5.922;2023-05-25T07:41:16;102777.31;;;15.00;100.00
57568;BME280;43403;51.948;5.922;2023-05-25T07:43:43;102769.56;;;15.09;100.00
57568;BME280;43403;51.948;5.922;2023-05-25T07:46:09;102773.63;;;15.13;98.02
57568;BME280;43403;51.948;5.922;2023-05-25T07:48:36;102775.81;;;15.29;99.18
57568;BME280;43403;51.948;5.922;2023-05-25T07:51:03;102779.75;;;15.34;92.64
57568;BME280;43403;51.948;5.922;2023-05-25T07:53:29;102780.69;;;15.45;92.58
57568;BME280;43403;51.948;5.922;2023-05-25T07:55:56;102781.97;;;15.60;93.39
57568;BME280;43403;51.948;5.922;2023-05-25T07:58:22;102787.69;;;15.76;89.13
57568;BME280;43403;51.948;5.922;2023-05-25T08:00:49;102787.03;;;15.84;89.16
57568;BME280;43403;51.948;5.922;2023-05-25T08:03:16;102789.75;;;16.04;89.00
57568;BME280;43403;51.948;5.922;2023-05-25T08:05:47;102796.44;;;16.08;84.82
57568;BME280;43403;51.948;5.922;2023-05-25T08:08:14;102794.38;;;16.11;85.27
57568;BME280;43403;51.948;5.922;2023-05-25T08:10:40;102795.59;;;16.17;85.44
57568;BME280;43403;51.948;5.922;2023-05-25T08:13:07;102792.81;;;16.18;80.92
57568;BME280;43403;51.948;5.922;2023-05-25T08:15:35;102792.59;;;16.31;86.37
57568;BME280;43403;51.948;5.922;2023-05-25T08:18:01;102794.41;;;16.50;83.42
57568;BME280;43403;51.948;5.922;2023-05-25T08:20:29;102795.28;;;16.60;79.70
57568;BME280;43403;51.948;5.922;2023-05-25T08:22:56;102797.94;;;16.70;78.64
57568;BME280;43403;51.948;5.922;2023-05-25T08:25:24;102795.03;;;16.83;79.58
57568;BME280;43403;51.948;5.922;2023-05-25T08:27:51;102798.94;;;16.89;78.33
57568;BME280;43403;51.948;5.922;2023-05-25T08:30:17;102799.94;;;16.88;78.33
57568;BME280;43403;51.948;5.922;2023-05-25T08:32:44;102803.28;;;16.90;77.14
57568;BME280;43403;51.948;5.922;2023-05-25T08:35:11;102808.44;;;16.91;77.87
57568;BME280;43403;51.948;5.922;2023-05-25T08:37:39;102807.31;;;16.94;75.80
57568;BME280;43403;51.948;5.922;2023-05-25T08:40:07;102808.44;;;16.91;73.75
57568;BME280;43403;51.948;5.922;2023-05-25T08:42:34;102802.03;;;16.84;75.10
57568;BME280;43403;51.948;5.922;2023-05-25T08:45:00;102812.63;;;16.94;74.97
57568;BME280;43403;51.948;5.922;2023-05-25T08:47:30;102810.94;;;17.12;74.02
57568;BME280;43403;51.948;5.922;2023-05-25T08:49:59;102812.59;;;17.23;74.07
57568;BME280;43403;51.948;5.922;2023-05-25T08:52:28;102808.25;;;17.32;73.43
57568;BME280;43403;51.948;5.922;2023-05-25T08:54:57;102810.47;;;17.36;72.68
57568;BME280;43403;51.948;5.922;2023-05-25T08:57:33;102805.31;;;17.35;73.52
57568;BME280;43403;51.948;5.922;2023-05-25T09:00:03;102813.13;;;17.27;70.19
57568;BME280;43403;51.948;5.922;2023-05-25T09:02:44;102806.84;;;17.37;72.16
57568;BME280;43403;51.948;5.922;2023-05-25T09:05:14;102806.94;;;17.55;73.59
57568;BME280;43403;51.948;5.922;2023-05-25T09:07:42;102809.25;;;17.78;70.65
57568;BME280;43403;51.948;5.922;2023-05-25T09:10:13;102805.28;;;18.02;68.41
57568;BME280;43403;51.948;5.922;2023-05-25T09:12:41;102806.50;;;18.07;69.18
57568;BME280;43403;51.948;5.922;2023-05-25T09:15:11;102811.09;;;18.05;68.34
57568;BME280;43403;51.948;5.922;2023-05-25T09:17:40;102806.78;;;18.50;66.89
57568;BME280;43403;51.948;5.922;2023-05-25T09:20:10;102803.63;;;18.64;65.21
57568;BME280;43403;51.948;5.922;2023-05-25T09:22:40;102805.66;;;19.06;64.23
57568;BME280;43403;51.948;5.922;2023-05-25T09:25:09;102806.31;;;19.52;62.18
57568;BME280;43403;51.948;5.922;2023-05-25T09:27:36;102804.88;;;19.92;60.19
57568;BME280;43403;51.948;5.922;2023-05-25T09:30:04;102805.13;;;20.07;59.77
57568;BME280;43403;51.948;5.922;2023-05-25T09:32:31;102807.38;;;20.53;59.53
57568;BME280;43403;51.948;5.922;2023-05-25T09:35:11;102804.13;;;20.84;57.62
57568;BME280;43403;51.948;5.922;2023-05-25T09:37:39;102800.44;;;21.09;57.07
57568;BME280;43403;51.948;5.922;2023-05-25T09:40:07;102790.91;;;21.31;55.27
57568;BME280;43403;51.948;5.922;2023-05-25T09:42:35;102784.69;;;21.56;54.54
57568;BME280;43403;51.948;5.922;2023-05-25T09:45:02;102789.22;;;21.47;55.21
57568;BME280;43403;51.948;5.922;2023-05-25T09:47:29;102790.41;;;21.20;54.79
57568;BME280;43403;51.948;5.922;2023-05-25T09:49:56;102790.63;;;20.93;55.98
57568;BME280;43403;51.948;5.922;2023-05-25T09:52:23;102796.91;;;20.68;55.44
57568;BME280;43403;51.948;5.922;2023-05-25T09:54:50;102800.38;;;20.52;55.85
57568;BME280;43403;51.948;5.922;2023-05-25T09:57:19;102795.19;;;20.42;54.67
57568;BME280;43403;51.948;5.922;2023-05-25T09:59:46;102803.19;;;20.34;55.44
57568;BME280;43403;51.948;5.922;2023-05-25T10:02:13;102795.72;;;20.46;54.70
57568;BME280;43403;51.948;5.922;2023-05-25T10:04:40;102794.88;;;20.45;56.08
57568;BME280;43403;51.948;5.922;2023-05-25T10:07:07;102803.00;;;20.27;55.40
57568;BME280;43403;51.948;5.922;2023-05-25T10:09:38;102799.81;;;20.24;56.51
57568;BME280;43403;51.948;5.922;2023-05-25T10:12:06;102802.47;;;20.15;57.35
57568;BME280;43403;51.948;5.922;2023-05-25T10:14:36;102801.16;;;20.28;56.69
57568;BME280;43403;51.948;5.922;2023-05-25T10:17:04;102788.59;;;20.71;57.35
57568;BME280;43403;51.948;5.922;2023-05-25T10:22:09;102799.94;;;20.73;55.64
57568;BME280;43403;51.948;5.922;2023-05-25T10:24:42;102789.47;;;20.80;54.74
57568;BME280;43403;51.948;5.922;2023-05-25T10:27:18;102796.28;;;20.82;53.53
57568;BME280;43403;51.948;5.922;2023-05-25T10:29:55;102797.63;;;20.70;53.96
57568;BME280;43403;51.948;5.922;2023-05-25T10:32:23;102792.59;;;20.67;54.21
57568;BME280;43403;51.948;5.922;2023-05-25T10:34:51;102790.28;;;20.80;52.26
57568;BME280;43403;51.948;5.922;2023-05-25T10:37:18;102800.44;;;20.85;52.23
57568;BME280;43403;51.948;5.922;2023-05-25T10:39:46;102797.78;;;20.77;53.08
57568;BME280;43403;51.948;5.922;2023-05-25T10:42:17;102808.75;;;20.65;52.83
57568;BME280;43403;51.948;5.922;2023-05-25T10:44:44;102803.53;;;20.47;53.93
57568;BME280;43403;51.948;5.922;2023-05-25T10:47:11;102807.03;;;20.40;53.29
57568;BME280;43403;51.948;5.922;2023-05-25T10:49:55;102801.53;;;20.41;53.53
57568;BME280;43403;51.948;5.922;2023-05-25T10:52:31;102794.94;;;20.86;51.26
57568;BME280;43403;51.948;5.922;2023-05-25T10:54:59;102795.41;;;21.31;52.08
57568;BME280;43403;51.948;5.922;2023-05-25T10:57:32;102788.47;;;21.69;50.82
57568;BME280;43403;51.948;5.922;2023-05-25T11:00:06;102793.41;;;22.20;50.79
57568;BME280;43403;51.948;5.922;2023-05-25T11:02:49;102789.81;;;22.13;49.74
57568;BME280;43403;51.948;5.922;2023-05-25T11:08:02;102784.25;;;21.83;51.20
57568;BME280;43403;51.948;5.922;2023-05-25T11:10:52;102791.50;;;21.66;51.82
57568;BME280;43403;51.948;5.922;2023-05-25T11:13:31;102783.13;;;21.69;51.91
57568;BME280;43403;51.948;5.922;2023-05-25T11:18:56;102788.22;;;21.96;53.16
57568;BME280;43403;51.948;5.922;2023-05-25T11:24:02;102793.78;;;21.86;52.18
57568;BME280;43403;51.948;5.922;2023-05-25T11:26:33;102795.13;;;21.73;52.13
57568;BME280;43403;51.948;5.922;2023-05-25T11:29:10;102799.03;;;21.63;52.32
57568;BME280;43403;51.948;5.922;2023-05-25T11:31:37;102788.56;;;21.45;52.52
57568;BME280;43403;51.948;5.922;2023-05-25T11:34:09;102791.25;;;21.45;52.85
57568;BME280;43403;51.948;5.922;2023-05-25T11:36:37;102782.88;;;21.40;52.02
57568;BME280;43403;51.948;5.922;2023-05-25T11:39:04;102793.56;;;21.31;51.64
57568;BME280;43403;51.948;5.922;2023-05-25T11:41:48;102774.09;;;21.79;50.83
57568;BME280;43403;51.948;5.922;2023-05-25T11:44:30;102773.13;;;22.03;49.75
57568;BME280;43403;51.948;5.922;2023-05-25T11:47:05;102771.44;;;22.10;49.77
57568;BME280;43403;51.948;5.922;2023-05-25T11:49:40;102776.66;;;22.03;49.44
57568;BME280;43403;51.948;5.922;2023-05-25T11:52:08;102775.84;;;21.95;49.34
57568;BME280;43403;51.948;5.922;2023-05-25T11:54:35;102789.25;;;21.86;50.18
57568;BME280;43403;51.948;5.922;2023-05-25T11:57:02;102770.47;;;21.63;50.27
57568;BME280;43403;51.948;5.922;2023-05-25T11:59:29;102772.69;;;21.51;50.00
57568;BME280;43403;51.948;5.922;2023-05-25T12:02:00;102767.69;;;21.40;50.38
57568;BME280;43403;51.948;5.922;2023-05-25T12:04:28;102762.84;;;21.36;50.97
57568;BME280;43403;51.948;5.922;2023-05-25T12:07:04;102754.31;;;21.57;49.60
57568;BME280;43403;51.948;5.922;2023-05-25T12:09:32;102750.44;;;21.99;49.10
57568;BME280;43403;51.948;5.922;2023-05-25T12:12:01;102745.94;;;21.99;48.17
57568;BME280;43403;51.948;5.922;2023-05-25T12:14:28;102753.06;;;22.07;47.96
57568;BME280;43403;51.948;5.922;2023-05-25T12:16:55;102758.41;;;22.07;47.82
57568;BME280;43403;51.948;5.922;2023-05-25T12:19:23;102758.47;;;21.99;48.65
57568;BME280;43403;51.948;5.922;2023-05-25T12:21:49;102753.03;;;21.84;48.03
57568;BME280;43403;51.948;5.922;2023-05-25T12:24:17;102759.88;;;21.86;49.29
57568;BME280;43403;51.948;5.922;2023-05-25T12:26:51;102759.00;;;21.94;49.12
57568;BME280;43403;51.948;5.922;2023-05-25T12:29:24;102750.81;;;21.96;48.79
57568;BME280;43403;51.948;5.922;2023-05-25T12:31:51;102751.28;;;21.99;50.07
57568;BME280;43403;51.948;5.922;2023-05-25T12:34:19;102747.66;;;21.92;49.42
57568;BME280;43403;51.948;5.922;2023-05-25T12:36:53;102746.81;;;22.23;50.16
57568;BME280;43403;51.948;5.922;2023-05-25T12:42:00;102743.06;;;22.78;47.15
57568;BME280;43403;51.948;5.922;2023-05-25T12:44:29;102739.66;;;22.84;46.49
57568;BME280;43403;51.948;5.922;2023-05-25T12:47:17;102745.06;;;22.99;46.09
57568;BME280;43403;51.948;5.922;2023-05-25T12:49:52;102738.13;;;23.05;47.32
57568;BME280;43403;51.948;5.922;2023-05-25T12:52:32;102736.69;;;23.32;45.17
57568;BME280;43403;51.948;5.922;2023-05-25T12:57:45;102735.19;;;23.15;44.59
57568;BME280;43403;51.948;5.922;2023-05-25T13:00:12;102732.81;;;23.20;45.55
57568;BME280;43403;51.948;5.922;2023-05-25T13:02:45;102733.63;;;23.20;46.44
57568;BME280;43403;51.948;5.922;2023-05-25T13:05:19;102734.28;;;23.07;46.45
57568;BME280;43403;51.948;5.922;2023-05-25T13:07:46;102732.31;;;23.01;46.86
57568;BME280;43403;51.948;5.922;2023-05-25T13:10:14;102725.97;;;23.02;46.72
57568;BME280;43403;51.948;5.922;2023-05-25T13:12:45;102732.06;;;23.26;46.84